sensor_id;sensor_type;location;lat;lon;timestamp;pressure;altitude;pressure_sealevel;temperature;humidity
38022;BME280;23832;43.216;27.946;2022-09-28T00:01:17;99635.56;;;21.67;100.00
38022;BME280;23832;43.216;27.946;2022-09-28T00:03:19;99627.25;;;21.63;100.00
38022;BME280;23832;43.216;27.946;2022-09-28T00:05:23;99623.22;;;21.61;100.00
38022;BME280;23832;43.216;27.946;2022-09-28T00:07:26;99631.81;;;21.58;100.00
38022;BME280;23832;43.216;27.946;2022-09-28T00:09:28;99624.56;;;21.53;100.00
38022;BME280;23832;43.216;27.946;2022-09-28T00:11:30;99631.81;;;21.52;100.00
38022;BME280;23832;43.216;27.946;2022-09-28T00:13:33;99620.28;;;21.52;100.00
38022;BME280;23832;43.216;27.946;2022-09-28T00:15:35;99620.56;;;21.50;100.00
38022;BME280;23832;43.216;27.946;2022-09-28T00:17:37;99615.19;;;21.45;100.00
38022;BME280;23832;43.216;27.946;2022-09-28T00:19:38;99610.13;;;21.39;100.00
38022;BME280;23832;43.216;27.946;2022-09-28T00:21:42;99616.78;;;21.36;100.00
38022;BME280;23832;43.216;27.946;2022-09-28T00:23:44;99633.97;;;21.30;100.00
38022;BME280;23832;43.216;27.946;2022-09-28T00:26:11;99626.97;;;21.24;100.00
38022;BME280;23832;43.216;27.946;2022-09-28T00:28:13;99629.91;;;21.22;100.00
38022;BME280;23832;43.216;27.946;2022-09-28T00:30:16;99624.00;;;21.20;100.00
38022;BME280;23832;43.216;27.946;2022-09-28T00:32:17;99632.31;;;21.19;100.00
38022;BME280;23832;43.216;27.946;2022-09-28T00:34:21;99643.81;;;21.19;100.00
38022;BME280;23832;43.216;27.946;2022-09-28T00:36:24;99643.03;;;21.19;100.00
38022;BME280;23832;43.216;27.946;2022-09-28T00:38:28;99639.00;;;21.16;100.00
38022;BME280;23832;43.216;27.946;2022-09-28T00:40:30;99636.59;;;21.15;100.00
38022;BME280;23832;43.216;27.946;2022-09-28T00:42:32;99639.00;;;21.11;100.00
38022;BME280;23832;43.216;27.946;2022-09-28T00:44:38;99641.69;;;21.06;100.00
38022;BME280;23832;43.216;27.946;2022-09-28T00:46:40;99648.13;;;21.05;100.00
38022;BME280;23832;43.216;27.946;2022-09-28T00:48:49;99653.19;;;21.02;100.00
38022;BME280;23832;43.216;27.946;2022-09-28T00:50:53;99653.19;;;20.96;100.00
38022;BME280;23832;43.216;27.946;2022-09-28T00:52:59;99651.00;;;20.93;100.00
38022;BME280;23832;43.216;27.946;2022-09-28T00:55:07;99654.50;;;20.89;100.00
38022;BME280;23832;43.216;27.946;2022-09-28T00:57:10;99654.47;;;20.84;100.00
38022;BME280;23832;43.216;27.946;2022-09-28T00:59:13;99657.16;;;20.84;100.00
38022;BME280;23832;43.216;27.946;2022-09-28T01:01:16;99658.75;;;20.80;100.00
38022;BME280;23832;43.216;27.946;2022-09-28T01:03:18;99657.97;;;20.79;100.00
38022;BME280;23832;43.216;27.946;2022-09-28T01:05:21;99664.38;;;20.78;100.00
38022;BME280;23832;43.216;27.946;2022-09-28T01:07:24;99655.81;;;20.76;100.00
38022;BME280;23832;43.216;27.946;2022-09-28T01:09:27;99661.19;;;20.76;100.00
38022;BME280;23832;43.216;27.946;2022-09-28T01:11:32;99657.44;;;20.77;100.00
38022;BME280;23832;43.216;27.946;2022-09-28T01:13:36;99662.53;;;20.79;100.00
38022;BME280;23832;43.216;27.946;2022-09-28T01:15:43;99663.59;;;20.78;100.00
38022;BME280;23832;43.216;27.946;2022-09-28T01:17:59;99657.66;;;20.76;100.00
38022;BME280;23832;43.216;27.946;2022-09-28T01:20:38;99651.50;;;20.70;100.00
38022;BME280;23832;43.216;27.946;2022-09-28T01:23:09;99650.69;;;20.69;100.00
38022;BME280;23832;43.216;27.946;2022-09-28T01:25:26;99646.16;;;20.70;100.00
38022;BME280;23832;43.216;27.946;2022-09-28T01:27:37;99658.19;;;20.73;100.00
38022;BME280;23832;43.216;27.946;2022-09-28T01:29:46;99651.50;;;20.75;100.00
38022;BME280;23832;43.216;27.946;2022-09-28T01:31:53;99649.63;;;20.76;100.00
38022;BME280;23832;43.216;27.946;2022-09-28T01:33:59;99650.47;;;20.76;100.00
38022;BME280;23832;43.216;27.946;2022-09-28T01:36:06;99650.47;;;20.76;100.00
38022;BME280;23832;43.216;27.946;2022-09-28T01:38:14;99656.59;;;20.72;100.00
38022;BME280;23832;43.216;27.946;2022-09-28T01:40:20;99653.91;;;20.72;100.00
38022;BME280;23832;43.216;27.946;2022-09-28T01:42:26;99659.81;;;20.68;100.00
38022;BME280;23832;43.216;27.946;2022-09-28T01:44:34;99652.53;;;20.59;100.00
38022;BME280;23832;43.216;27.946;2022-09-28T01:46:41;99653.34;;;20.64;100.00
38022;BME280;23832;43.216;27.946;2022-09-28T01:48:48;99657.09;;;20.63;100.00
38022;BME280;23832;43.216;27.946;2022-09-28T01:50:56;99650.94;;;20.63;100.00
38022;BME280;23832;43.216;27.946;2022-09-28T01:53:03;99646.38;;;20.58;100.00
38022;BME280;23832;43.216;27.946;2022-09-28T01:55:11;99645.31;;;20.59;100.00
38022;BME280;23832;43.216;27.946;2022-09-28T01:57:17;99646.13;;;20.60;100.00
38022;BME280;23832;43.216;27.946;2022-09-28T01:59:24;99646.38;;;20.58;100.00
38022;BME280;23832;43.216;27.946;2022-09-28T02:01:34;99639.66;;;20.56;100.00
38022;BME280;23832;43.216;27.946;2022-09-28T02:03:41;99645.56;;;20.53;100.00
38022;BME280;23832;43.216;27.946;2022-09-28T02:05:48;99648.75;;;20.50;100.00
38022;BME280;23832;43.216;27.946;2022-09-28T02:07:55;99625.63;;;20.33;100.00
38022;BME280;23832;43.216;27.946;2022-09-28T02:10:02;99633.47;;;20.45;100.00
38022;BME280;23832;43.216;27.946;2022-09-28T02:12:10;99630.50;;;20.41;100.00
38022;BME280;23832;43.216;27.946;2022-09-28T02:14:15;99629.94;;;20.39;100.00
38022;BME280;23832;43.216;27.946;2022-09-28T02:16:21;99635.84;;;20.41;100.00
38022;BME280;23832;43.216;27.946;2022-09-28T02:18:27;99599.34;;;20.20;100.00
38022;BME280;23832;43.216;27.946;2022-09-28T02:20:30;99624.03;;;20.37;100.00
38022;BME280;23832;43.216;27.946;2022-09-28T02:22:36;99633.75;;;20.44;100.00
38022;BME280;23832;43.216;27.946;2022-09-28T02:24:44;99636.41;;;20.44;100.00
38022;BME280;23832;43.216;27.946;2022-09-28T02:26:48;99633.75;;;20.44;100.00
38022;BME280;23832;43.216;27.946;2022-09-28T02:28:52;99637.72;;;20.41;100.00
38022;BME280;23832;43.216;27.946;2022-09-28T02:30:54;99637.22;;;20.44;100.00
38022;BME280;23832;43.216;27.946;2022-09-28T02:33:00;99645.78;;;20.46;100.00
38022;BME280;23832;43.216;27.946;2022-09-28T02:35:07;99645.78;;;20.46;100.00
38022;BME280;23832;43.216;27.946;2022-09-28T02:37:09;99643.38;;;20.45;100.00
38022;BME280;23832;43.216;27.946;2022-09-28T02:39:12;99644.97;;;20.46;100.00
38022;BME280;23832;43.216;27.946;2022-09-28T02:41:26;99654.88;;;20.45;100.00
38022;BME280;23832;43.216;27.946;2022-09-28T02:43:43;99649.00;;;20.43;100.00
38022;BME280;23832;43.216;27.946;2022-09-28T02:45:58;99645.19;;;20.39;100.00
38022;BME280;23832;43.216;27.946;2022-09-28T02:48:11;99658.34;;;20.40;100.00
38022;BME280;23832;43.216;27.946;2022-09-28T02:50:27;99650.53;;;20.39;100.00
38022;BME280;23832;43.216;27.946;2022-09-28T02:52:49;99656.97;;;20.38;100.00
38022;BME280;23832;43.216;27.946;2022-09-28T02:55:13;99651.06;;;20.36;100.00
38022;BME280;23832;43.216;27.946;2022-09-28T02:57:26;99656.41;;;20.36;100.00
38022;BME280;23832;43.216;27.946;2022-09-28T02:59:43;99652.69;;;20.37;100.00
38022;BME280;23832;43.216;27.946;2022-09-28T03:01:53;99657.22;;;20.36;100.00
38022;BME280;23832;43.216;27.946;2022-09-28T03:04:02;99659.38;;;20.34;100.00
38022;BME280;23832;43.216;27.946;2022-09-28T03:06:11;99651.34;;;20.34;100.00
38022;BME280;23832;43.216;27.946;2022-09-28T03:08:19;99652.41;;;20.33;100.00
38022;BME280;23832;43.216;27.946;2022-09-28T03:10:27;99653.47;;;20.32;100.00
38022;BME280;23832;43.216;27.946;2022-09-28T03:12:32;99663.59;;;20.30;100.00
38022;BME280;23832;43.216;27.946;2022-09-28T03:14:35;99662.81;;;20.30;100.00
38022;BME280;23832;43.216;27.946;2022-09-28T03:16:37;99657.97;;;20.27;100.00
38022;BME280;23832;43.216;27.946;2022-09-28T03:18:39;99650.22;;;20.25;100.00
38022;BME280;23832;43.216;27.946;2022-09-28T03:20:41;99660.94;;;20.25;100.00
38022;BME280;23832;43.216;27.946;2022-09-28T03:22:44;99653.59;;;20.10;100.00
38022;BME280;23832;43.216;27.946;2022-09-28T03:24:46;99657.72;;;20.23;100.00
38022;BME280;23832;43.216;27.946;2022-09-28T03:26:49;99652.84;;;20.20;100.00
38022;BME280;23832;43.216;27.946;2022-09-28T03:28:50;99668.91;;;20.20;100.00
38022;BME280;23832;43.216;27.946;2022-09-28T03:30:53;99662.75;;;20.20;100.00
38022;BME280;23832;43.216;27.946;2022-09-28T03:32:58;99670.53;;;20.21;100.00
38022;BME280;23832;43.216;27.946;2022-09-28T03:35:02;99671.84;;;20.19;100.00
38022;BME280;23832;43.216;27.946;2022-09-28T03:37:04;99681.75;;;20.18;100.00
38022;BME280;23832;43.216;27.946;2022-09-28T03:39:07;99685.22;;;20.19;100.00
38022;BME280;23832;43.216;27.946;2022-09-28T03:41:09;99674.53;;;20.19;100.00
38022;BME280;23832;43.216;27.946;2022-09-28T03:43:11;99689.78;;;20.18;100.00
38022;BME280;23832;43.216;27.946;2022-09-28T03:45:13;99684.16;;;20.20;100.00
38022;BME280;23832;43.216;27.946;2022-09-28T03:47:16;99690.88;;;20.22;100.00
38022;BME280;23832;43.216;27.946;2022-09-28T03:49:18;99684.97;;;20.20;100.00
38022;BME280;23832;43.216;27.946;2022-09-28T03:51:20;99686.56;;;20.21;100.00
38022;BME280;23832;43.216;27.946;2022-09-28T03:53:23;99686.56;;;20.21;100.00
38022;BME280;23832;43.216;27.946;2022-09-28T03:55:26;99690.06;;;20.22;100.00
38022;BME280;23832;43.216;27.946;2022-09-28T03:57:28;99686.56;;;20.21;100.00
38022;BME280;23832;43.216;27.946;2022-09-28T03:59:30;99673.47;;;20.20;100.00
38022;BME280;23832;43.216;27.946;2022-09-28T04:01:36;99670.53;;;20.21;100.00
38022;BME280;23832;43.216;27.946;2022-09-28T04:03:38;99677.50;;;20.22;100.00
38022;BME280;23832;43.216;27.946;2022-09-28T04:05:47;99679.94;;;20.24;100.00
38022;BME280;23832;43.216;27.946;2022-09-28T04:07:50;99687.03;;;20.08;100.00
38022;BME280;23832;43.216;27.946;2022-09-28T04:09:53;99676.63;;;20.11;100.00
38022;BME280;23832;43.216;27.946;2022-09-28T04:11:56;99678.28;;;20.18;100.00
38022;BME280;23832;43.216;27.946;2022-09-28T04:13:58;99673.72;;;20.18;100.00
38022;BME280;23832;43.216;27.946;2022-09-28T04:16:00;99679.63;;;20.20;100.00
38022;BME280;23832;43.216;27.946;2022-09-28T04:18:03;99665.69;;;20.18;100.00
38022;BME280;23832;43.216;27.946;2022-09-28T04:20:06;99676.13;;;20.20;100.00
38022;BME280;23832;43.216;27.946;2022-09-28T04:22:08;99667.31;;;20.19;100.00
38022;BME280;23832;43.216;27.946;2022-09-28T04:24:10;99668.09;;;20.20;100.00
38022;BME280;23832;43.216;27.946;2022-09-28T04:26:15;99677.50;;;20.22;100.00
38022;BME280;23832;43.216;27.946;2022-09-28T04:28:19;99671.31;;;20.22;100.00
38022;BME280;23832;43.216;27.946;2022-09-28T04:30:38;99679.34;;;20.22;100.00
38022;BME280;23832;43.216;27.946;2022-09-28T04:32:40;99682.34;;;20.25;100.00
38022;BME280;23832;43.216;27.946;2022-09-28T04:34:42;99684.47;;;20.28;100.00
38022;BME280;23832;43.216;27.946;2022-09-28T04:36:44;99691.75;;;20.33;100.00
38022;BME280;23832;43.216;27.946;2022-09-28T04:38:46;99693.91;;;20.36;100.00
38022;BME280;23832;43.216;27.946;2022-09-28T04:40:48;99701.69;;;20.42;100.00
38022;BME280;23832;43.216;27.946;2022-09-28T04:42:53;99698.81;;;20.49;100.00
38022;BME280;23832;43.216;27.946;2022-09-28T04:44:57;99700.72;;;20.54;100.00
38022;BME280;23832;43.216;27.946;2022-09-28T04:47:00;99703.66;;;20.57;100.00
38022;BME280;23832;43.216;27.946;2022-09-28T04:49:02;99706.09;;;20.64;100.00
38022;BME280;23832;43.216;27.946;2022-09-28T04:51:04;99708.81;;;20.74;100.00
38022;BME280;23832;43.216;27.946;2022-09-28T04:53:06;99705.38;;;20.84;100.00
38022;BME280;23832;43.216;27.946;2022-09-28T04:55:10;99714.81;;;20.96;100.00
38022;BME280;23832;43.216;27.946;2022-09-28T04:57:12;99718.31;;;21.07;100.00
38022;BME280;23832;43.216;27.946;2022-09-28T04:59:14;99712.72;;;21.19;100.00
38022;BME280;23832;43.216;27.946;2022-09-28T05:01:18;99718.13;;;21.34;100.00
38022;BME280;23832;43.216;27.946;2022-09-28T05:03:22;99720.56;;;21.46;100.00
38022;BME280;23832;43.216;27.946;2022-09-28T05:05:24;99725.13;;;21.56;100.00
38022;BME280;23832;43.216;27.946;2022-09-28T05:07:26;99717.66;;;21.68;100.00
38022;BME280;23832;43.216;27.946;2022-09-28T05:09:28;99722.47;;;21.81;100.00
38022;BME280;23832;43.216;27.946;2022-09-28T05:11:30;99731.59;;;21.95;100.00
38022;BME280;23832;43.216;27.946;2022-09-28T05:13:37;99726.50;;;22.09;100.00
38022;BME280;23832;43.216;27.946;2022-09-28T05:15:41;99724.63;;;22.20;100.00
38022;BME280;23832;43.216;27.946;2022-09-28T05:17:44;99729.94;;;22.35;100.00
38022;BME280;23832;43.216;27.946;2022-09-28T05:19:46;99728.31;;;22.49;100.00
38022;BME280;23832;43.216;27.946;2022-09-28T05:21:48;99727.19;;;22.60;100.00
38022;BME280;23832;43.216;27.946;2022-09-28T05:23:50;99727.69;;;22.62;100.00
38022;BME280;23832;43.216;27.946;2022-09-28T05:25:55;99722.28;;;22.73;100.00
38022;BME280;23832;43.216;27.946;2022-09-28T05:27:57;99720.13;;;22.80;100.00
38022;BME280;23832;43.216;27.946;2022-09-28T05:30:01;99730.84;;;22.90;100.00
38022;BME280;23832;43.216;27.946;2022-09-28T05:32:03;99730.78;;;23.00;100.00
38022;BME280;23832;43.216;27.946;2022-09-28T05:34:06;99740.97;;;23.13;100.00
38022;BME280;23832;43.216;27.946;2022-09-28T05:36:08;99737.41;;;23.18;100.00
38022;BME280;23832;43.216;27.946;2022-09-28T05:38:11;99741.41;;;23.26;100.00
38022;BME280;23832;43.216;27.946;2022-09-28T05:40:13;99751.09;;;23.27;100.00
38022;BME280;23832;43.216;27.946;2022-09-28T05:42:15;99749.97;;;23.33;100.00
38022;BME280;23832;43.216;27.946;2022-09-28T05:44:17;99756.44;;;23.32;100.00
38022;BME280;23832;43.216;27.946;2022-09-28T05:46:19;99756.44;;;23.32;100.00
38022;BME280;23832;43.216;27.946;2022-09-28T05:48:23;99754.84;;;23.31;100.00
38022;BME280;23832;43.216;27.946;2022-09-28T05:50:26;99759.13;;;23.37;100.00
38022;BME280;23832;43.216;27.946;2022-09-28T05:52:28;99756.91;;;23.44;100.00
38022;BME280;23832;43.216;27.946;2022-09-28T05:54:30;99757.13;;;23.52;100.00
38022;BME280;23832;43.216;27.946;2022-09-28T05:56:32;99759.53;;;23.59;100.00
38022;BME280;23832;43.216;27.946;2022-09-28T05:58:34;99758.91;;;23.72;100.00
38022;BME280;23832;43.216;27.946;2022-09-28T06:00:36;99758.47;;;23.89;100.00
38022;BME280;23832;43.216;27.946;2022-09-28T06:02:38;99757.03;;;24.02;100.00
38022;BME280;23832;43.216;27.946;2022-09-28T06:04:40;99752.38;;;24.13;100.00
38022;BME280;23832;43.216;27.946;2022-09-28T06:06:43;99756.03;;;24.22;100.00
38022;BME280;23832;43.216;27.946;2022-09-28T06:08:45;99756.28;;;24.25;100.00
38022;BME280;23832;43.216;27.946;2022-09-28T06:10:48;99753.78;;;24.34;100.00
38022;BME280;23832;43.216;27.946;2022-09-28T06:12:53;99764.25;;;24.41;100.00
38022;BME280;23832;43.216;27.946;2022-09-28T06:14:55;99763.78;;;24.57;100.00
38022;BME280;23832;43.216;27.946;2022-09-28T06:16:58;99763.63;;;24.73;100.00
38022;BME280;23832;43.216;27.946;2022-09-28T06:19:00;99764.81;;;24.85;100.00
38022;BME280;23832;43.216;27.946;2022-09-28T06:21:02;99755.50;;;24.97;100.00
38022;BME280;23832;43.216;27.946;2022-09-28T06:23:06;99762.34;;;25.13;100.00
38022;BME280;23832;43.216;27.946;2022-09-28T06:25:08;99755.94;;;25.28;100.00
38022;BME280;23832;43.216;27.946;2022-09-28T06:27:11;99759.22;;;25.43;100.00
38022;BME280;23832;43.216;27.946;2022-09-28T06:29:13;99762.78;;;25.58;100.00
38022;BME280;23832;43.216;27.946;2022-09-28T06:31:19;99759.59;;;25.74;100.00
38022;BME280;23832;43.216;27.946;2022-09-28T06:33:23;99768.25;;;25.90;100.00
38022;BME280;23832;43.216;27.946;2022-09-28T06:35:27;99764.69;;;26.09;100.00
38022;BME280;23832;43.216;27.946;2022-09-28T06:37:29;99763.84;;;26.27;100.00
38022;BME280;23832;43.216;27.946;2022-09-28T06:39:33;99765.06;;;26.48;100.00
38022;BME280;23832;43.216;27.946;2022-09-28T06:41:35;99757.66;;;26.68;100.00
38022;BME280;23832;43.216;27.946;2022-09-28T06:43:37;99761.59;;;26.89;100.00
38022;BME280;23832;43.216;27.946;2022-09-28T06:45:40;99757.75;;;27.04;100.00
38022;BME280;23832;43.216;27.946;2022-09-28T06:47:43;99761.34;;;27.27;100.00
38022;BME280;23832;43.216;27.946;2022-09-28T06:49:45;99754.97;;;27.45;100.00
38022;BME280;23832;43.216;27.946;2022-09-28T06:51:54;99765.94;;;27.62;100.00
38022;BME280;23832;43.216;27.946;2022-09-28T06:53:56;99761.59;;;27.75;100.00
38022;BME280;23832;43.216;27.946;2022-09-28T06:56:00;99753.22;;;27.85;100.00
38022;BME280;23832;43.216;27.946;2022-09-28T06:58:04;99746.25;;;27.93;99.01
38022;BME280;23832;43.216;27.946;2022-09-28T07:00:07;99756.22;;;28.06;96.69
38022;BME280;23832;43.216;27.946;2022-09-28T07:02:10;99746.34;;;28.10;95.11
38022;BME280;23832;43.216;27.946;2022-09-28T07:04:13;99745.84;;;28.31;92.61
38022;BME280;23832;43.216;27.946;2022-09-28T07:06:15;99746.56;;;28.45;88.98
38022;BME280;23832;43.216;27.946;2022-09-28T07:08:18;99748.66;;;28.56;86.35
38022;BME280;23832;43.216;27.946;2022-09-28T07:10:21;99755.56;;;28.71;83.97
38022;BME280;23832;43.216;27.946;2022-09-28T07:12:25;99760.06;;;28.84;81.26
38022;BME280;23832;43.216;27.946;2022-09-28T07:14:27;99744.66;;;28.94;80.26
38022;BME280;23832;43.216;27.946;2022-09-28T07:16:29;99759.34;;;29.10;78.49
38022;BME280;23832;43.216;27.946;2022-09-28T07:18:31;99750.91;;;29.20;73.18
38022;BME280;23832;43.216;27.946;2022-09-28T07:20:34;99762.41;;;29.34;72.07
38022;BME280;23832;43.216;27.946;2022-09-28T07:22:37;99753.94;;;29.45;70.50
38022;BME280;23832;43.216;27.946;2022-09-28T07:24:39;99752.53;;;29.56;68.83
38022;BME280;23832;43.216;27.946;2022-09-28T07:26:43;99748.41;;;29.67;67.62
38022;BME280;23832;43.216;27.946;2022-09-28T07:28:47;99753.03;;;29.75;65.44
38022;BME280;23832;43.216;27.946;2022-09-28T07:30:49;99745.16;;;29.82;64.71
38022;BME280;23832;43.216;27.946;2022-09-28T07:32:51;99750.41;;;29.96;64.06
38022;BME280;23832;43.216;27.946;2022-09-28T07:34:54;99754.06;;;30.09;63.33
38022;BME280;23832;43.216;27.946;2022-09-28T07:36:56;99748.13;;;30.24;62.58
38022;BME280;23832;43.216;27.946;2022-09-28T07:39:01;99751.91;;;30.40;61.25
38022;BME280;23832;43.216;27.946;2022-09-28T07:41:03;99747.03;;;30.55;60.75
38022;BME280;23832;43.216;27.946;2022-09-28T07:43:14;99739.81;;;30.59;59.30
38022;BME280;23832;43.216;27.946;2022-09-28T07:45:21;99746.75;;;30.86;56.43
38022;BME280;23832;43.216;27.946;2022-09-28T07:47:25;99745.75;;;30.90;56.06
38022;BME280;23832;43.216;27.946;2022-09-28T07:49:27;99735.88;;;31.06;55.55
38022;BME280;23832;43.216;27.946;2022-09-28T07:51:30;99737.56;;;31.20;55.12
38022;BME280;23832;43.216;27.946;2022-09-28T07:53:32;99744.47;;;31.38;54.97
38022;BME280;23832;43.216;27.946;2022-09-28T07:55:34;99739.53;;;31.52;53.90
38022;BME280;23832;43.216;27.946;2022-09-28T07:57:36;99733.66;;;31.62;51.97
38022;BME280;23832;43.216;27.946;2022-09-28T07:59:39;99732.44;;;31.72;52.19
38022;BME280;23832;43.216;27.946;2022-09-28T08:01:46;99736.50;;;31.87;51.91
38022;BME280;23832;43.216;27.946;2022-09-28T08:03:48;99729.16;;;32.00;51.05
38022;BME280;23832;43.216;27.946;2022-09-28T08:05:51;99736.22;;;32.13;49.96
38022;BME280;23832;43.216;27.946;2022-09-28T08:07:53;99723.53;;;32.29;48.89
38022;BME280;23832;43.216;27.946;2022-09-28T08:09:57;99730.25;;;32.44;48.72
38022;BME280;23832;43.216;27.946;2022-09-28T08:12:00;99732.75;;;32.61;47.63
38022;BME280;23832;43.216;27.946;2022-09-28T08:14:03;99731.16;;;32.72;44.98
38022;BME280;23832;43.216;27.946;2022-09-28T08:16:05;99724.31;;;32.79;43.14
38022;BME280;23832;43.216;27.946;2022-09-28T08:18:10;99730.03;;;32.86;43.52
38022;BME280;23832;43.216;27.946;2022-09-28T08:20:12;99722.63;;;32.86;43.05
38022;BME280;23832;43.216;27.946;2022-09-28T08:22:31;99723.59;;;33.06;43.20
38022;BME280;23832;43.216;27.946;2022-09-28T08:24:33;99722.66;;;33.26;43.65
38022;BME280;23832;43.216;27.946;2022-09-28T08:26:35;99716.81;;;33.40;43.00
38022;BME280;23832;43.216;27.946;2022-09-28T08:28:37;99718.69;;;33.52;42.08
38022;BME280;23832;43.216;27.946;2022-09-28T08:30:40;99720.69;;;33.67;42.34
38022;BME280;23832;43.216;27.946;2022-09-28T08:32:45;99714.69;;;33.77;41.03
38022;BME280;23832;43.216;27.946;2022-09-28T08:34:52;99711.72;;;33.82;40.75
38022;BME280;23832;43.216;27.946;2022-09-28T08:36:55;99716.69;;;33.93;40.92
38022;BME280;23832;43.216;27.946;2022-09-28T08:38:57;99718.56;;;33.89;38.80
38022;BME280;23832;43.216;27.946;2022-09-28T08:41:08;99723.22;;;33.88;38.34
38022;BME280;23832;43.216;27.946;2022-09-28T08:43:23;99727.13;;;33.75;37.82
38022;BME280;23832;43.216;27.946;2022-09-28T08:45:31;99727.72;;;33.68;38.67
38022;BME280;23832;43.216;27.946;2022-09-28T08:47:42;99725.63;;;33.77;39.09
38022;BME280;23832;43.216;27.946;2022-09-28T08:50:06;99725.47;;;33.86;38.80
38022;BME280;23832;43.216;27.946;2022-09-28T08:52:14;99731.88;;;34.06;38.85
38022;BME280;23832;43.216;27.946;2022-09-28T08:54:27;99728.34;;;34.21;37.58
38022;BME280;23832;43.216;27.946;2022-09-28T08:56:38;99725.53;;;34.33;37.54
38022;BME280;23832;43.216;27.946;2022-09-28T08:58:43;99719.56;;;34.43;38.20
38022;BME280;23832;43.216;27.946;2022-09-28T09:00:49;99719.31;;;34.68;38.51
38022;BME280;23832;43.216;27.946;2022-09-28T09:02:51;99715.50;;;34.88;37.35
38022;BME280;23832;43.216;27.946;2022-09-28T09:04:54;99719.78;;;35.05;37.11
38022;BME280;23832;43.216;27.946;2022-09-28T09:07:10;99730.25;;;35.19;36.29
38022;BME280;23832;43.216;27.946;2022-09-28T09:09:21;99719.44;;;35.26;36.30
38022;BME280;23832;43.216;27.946;2022-09-28T09:11:39;99726.78;;;35.22;34.97
38022;BME280;23832;43.216;27.946;2022-09-28T09:13:59;99714.16;;;34.98;34.54
38022;BME280;23832;43.216;27.946;2022-09-28T09:16:12;99718.22;;;34.88;34.88
38022;BME280;23832;43.216;27.946;2022-09-28T09:18:16;99724.94;;;34.40;34.03
38022;BME280;23832;43.216;27.946;2022-09-28T09:20:31;99725.53;;;34.33;35.50
38022;BME280;23832;43.216;27.946;2022-09-28T09:22:50;99728.63;;;34.48;36.02
38022;BME280;23832;43.216;27.946;2022-09-28T09:25:00;99724.38;;;34.66;35.87
38022;BME280;23832;43.216;27.946;2022-09-28T09:27:05;99715.31;;;34.81;34.98
38022;BME280;23832;43.216;27.946;2022-09-28T09:29:16;99711.16;;;34.87;35.04
38022;BME280;23832;43.216;27.946;2022-09-28T09:31:31;99719.50;;;35.10;34.58
38022;BME280;23832;43.216;27.946;2022-09-28T09:36:17;99711.59;;;35.44;33.92
38022;BME280;23832;43.216;27.946;2022-09-28T09:38:40;99714.03;;;35.49;32.52
38022;BME280;23832;43.216;27.946;2022-09-28T09:40:56;99728.59;;;35.53;33.11
38022;BME280;23832;43.216;27.946;2022-09-28T09:43:07;99714.25;;;35.60;33.15
38022;BME280;23832;43.216;27.946;2022-09-28T09:45:27;99710.13;;;35.69;32.34
38022;BME280;23832;43.216;27.946;2022-09-28T09:47:36;99717.97;;;35.71;32.16
38022;BME280;23832;43.216;27.946;2022-09-28T09:49:41;99715.78;;;35.80;31.97
38022;BME280;23832;43.216;27.946;2022-09-28T09:51:49;99717.53;;;35.88;30.54
38022;BME280;23832;43.216;27.946;2022-09-28T09:53:59;99719.53;;;35.91;30.38
38022;BME280;23832;43.216;27.946;2022-09-28T09:56:08;99711.53;;;35.82;29.84
38022;BME280;23832;43.216;27.946;2022-09-28T09:58:17;99723.63;;;36.01;29.74
38022;BME280;23832;43.216;27.946;2022-09-28T10:00:21;99715.47;;;36.04;29.87
38022;BME280;23832;43.216;27.946;2022-09-28T10:02:24;99718.31;;;36.11;29.41
38022;BME280;23832;43.216;27.946;2022-09-28T10:04:29;99714.84;;;36.15;29.01
38022;BME280;23832;43.216;27.946;2022-09-28T10:06:36;99719.19;;;36.16;29.41
38022;BME280;23832;43.216;27.946;2022-09-28T10:08:41;99713.81;;;36.23;29.91
38022;BME280;23832;43.216;27.946;2022-09-28T10:10:48;99712.19;;;36.22;28.34
38022;BME280;23832;43.216;27.946;2022-09-28T10:12:51;99712.53;;;36.17;28.90
38022;BME280;23832;43.216;27.946;2022-09-28T10:14:53;99707.13;;;35.97;28.31
38022;BME280;23832;43.216;27.946;2022-09-28T10:16:56;99707.25;;;36.04;28.50
38022;BME280;23832;43.216;27.946;2022-09-28T10:18:59;99710.69;;;36.01;27.90
38022;BME280;23832;43.216;27.946;2022-09-28T10:21:01;99701.84;;;36.11;28.26
38022;BME280;23832;43.216;27.946;2022-09-28T10:23:05;99712.94;;;36.19;27.48
38022;BME280;23832;43.216;27.946;2022-09-28T10:25:11;99709.03;;;36.20;27.09
38022;BME280;23832;43.216;27.946;2022-09-28T10:27:17;99706.63;;;36.15;27.32
38022;BME280;23832;43.216;27.946;2022-09-28T10:29:21;99712.72;;;36.04;27.28
38022;BME280;23832;43.216;27.946;2022-09-28T10:31:39;99713.25;;;35.91;27.13
38022;BME280;23832;43.216;27.946;2022-09-28T10:33:42;99711.59;;;35.86;28.07
38022;BME280;23832;43.216;27.946;2022-09-28T10:35:44;99712.63;;;35.78;26.96
38022;BME280;23832;43.216;27.946;2022-09-28T10:37:53;99711.28;;;35.68;26.84
38022;BME280;23832;43.216;27.946;2022-09-28T10:39:56;99709.34;;;35.49;26.42
38022;BME280;23832;43.216;27.946;2022-09-28T10:41:59;99710.72;;;35.40;26.79
38022;BME280;23832;43.216;27.946;2022-09-28T10:44:05;99698.72;;;35.28;26.51
38022;BME280;23832;43.216;27.946;2022-09-28T10:46:09;99686.47;;;35.22;26.76
38022;BME280;23832;43.216;27.946;2022-09-28T10:48:18;99688.09;;;35.23;25.12
38022;BME280;23832;43.216;27.946;2022-09-28T10:50:23;99689.09;;;35.15;25.91
38022;BME280;23832;43.216;27.946;2022-09-28T10:52:37;99672.41;;;35.05;25.67